Time;durP1;ratioP1;P1;durP2;ratioP2;P2;SDS_P1;SDS_P2;PMS_P1;PMS_P2;Temp;Humidity;BMP_temperature;BMP_pressure;BME280_temperature;BME280_humidity;BME280_pressure;Samples;Min_cycle;Max_cycle;Signal;HPM_P1;HPM_P2
2022/04/21 00:01:18;;;;;;;;;;;7.10;99.90;;;;;;5065872;28;19935;-75
2022/04/21 00:03:45;;;;;;;;;;;7.10;99.90;;;;;;5064804;28;19928;-75
2022/04/21 00:06:12;;;;;;;;;;;7.00;99.90;;;;;;5060377;28;19952;-75
2022/04/21 00:08:38;;;;;;;;;;;7.00;99.90;;;;;;5064483;28;19925;-75
2022/04/21 00:11:05;;;;;;;;;;;7.00;99.90;;;;;;5060794;28;19933;-75
2022/04/21 00:13:35;;;;;;;;;;;7.00;99.90;;;;;;5067466;28;19975;-75
2022/04/21 00:16:02;;;;;;;;;;;7.00;99.90;;;;;;5067559;28;19924;-75
2022/04/21 00:18:28;;;;;;;;;;;6.90;99.90;;;;;;5070150;28;20473;-75
2022/04/21 00:20:57;;;;;;;;;;;6.90;99.90;;;;;;5061743;28;19929;-75
2022/04/21 00:23:26;;;;;;;;;;;6.90;99.90;;;;;;5063004;28;19924;-75
2022/04/21 00:25:54;;;;;;;;;;;6.80;99.90;;;;;;5067379;28;19932;-75
2022/04/21 00:28:21;;;;;;;;;;;6.80;99.90;;;;;;5070533;28;19935;-75
2022/04/21 00:30:48;;;;;;;;;;;6.70;99.90;;;;;;5068139;28;19925;-75
2022/04/21 00:33:17;;;;;;;;;;;6.50;99.90;;;;;;5101015;28;19929;-75
2022/04/21 00:35:44;;;;;;;;;;;6.30;99.90;;;;;;5063458;28;19924;-75
2022/04/21 00:38:16;;;;;;;;;;;6.20;99.90;;;;;;5068479;28;19924;-75
2022/04/21 00:40:43;;;;;;;;;;;6.10;99.90;;;;;;5068838;28;19925;-74
2022/04/21 00:43:10;;;;;;;;;;;6.10;99.90;;;;;;5068630;28;19924;-74
2022/04/21 00:45:36;;;;;;;;;;;6.00;99.90;;;;;;5066791;28;20046;-74
2022/04/21 00:48:04;;;;;;;;;;;6.10;99.90;;;;;;5066268;28;19924;-74
2022/04/21 00:50:33;;;;;;;;;;;6.10;99.90;;;;;;5067407;28;19924;-75
2022/04/21 00:53:01;;;;;;;;;;;6.20;99.90;;;;;;5066437;28;19924;-74
2022/04/21 00:55:29;;;;;;;;;;;6.20;99.90;;;;;;5069342;28;20011;-75
2022/04/21 00:57:58;;;;;;;;;;;6.20;99.90;;;;;;5065710;28;20389;-75
2022/04/21 01:00:25;;;;;;;;;;;6.10;99.90;;;;;;5070417;28;19924;-74
2022/04/21 01:02:54;;;;;;;;;;;6.10;99.90;;;;;;5096697;27;19929;-74
2022/04/21 01:05:33;;;;;;;;;;;6.00;99.90;;;;;;5065457;28;20288;-75
2022/04/21 01:08:01;;;;;;;;;;;5.90;99.90;;;;;;5067827;28;19929;-75
2022/04/21 01:10:29;;;;;;;;;;;5.70;99.90;;;;;;5069111;28;19924;-75
2022/04/21 01:12:56;;;;;;;;;;;5.60;99.90;;;;;;5069558;28;20456;-75
2022/04/21 01:15:23;;;;;;;;;;;5.40;99.90;;;;;;5068814;28;19946;-74
2022/04/21 01:17:51;;;;;;;;;;;5.20;99.90;;;;;;5064939;28;20402;-75
2022/04/21 01:20:21;;;;;;;;;;;5.00;99.90;;;;;;5064137;28;20238;-75
2022/04/21 01:22:48;;;;;;;;;;;4.90;99.90;;;;;;5101406;28;19931;-75
2022/04/21 01:25:15;;;;;;;;;;;4.70;99.90;;;;;;5065956;28;19932;-75
2022/04/21 01:27:41;;;;;;;;;;;4.60;99.90;;;;;;5067171;28;19924;-75
2022/04/21 01:30:09;;;;;;;;;;;4.50;99.90;;;;;;5067615;28;19967;-76
2022/04/21 01:32:37;;;;;;;;;;;4.40;99.90;;;;;;5068631;28;19924;-75
2022/04/21 01:35:08;;;;;;;;;;;4.50;99.90;;;;;;5064127;28;19933;-75
2022/04/21 01:43:09;;;;;;;;;;;4.60;99.90;;;;;;5065298;28;20298;-75
2022/04/21 01:45:36;;;;;;;;;;;4.70;99.90;;;;;;5065342;28;19929;-75
2022/04/21 01:48:03;;;;;;;;;;;4.70;99.90;;;;;;5064202;28;20307;-75
2022/04/21 01:50:30;;;;;;;;;;;4.60;99.90;;;;;;5064901;28;20286;-75
2022/04/21 01:52:58;;;;;;;;;;;4.70;99.90;;;;;;5058877;28;20410;-75
2022/04/21 01:55:25;;;;;;;;;;;4.60;99.90;;;;;;5065836;28;20550;-75
2022/04/21 01:57:54;;;;;;;;;;;4.60;99.90;;;;;;5061014;28;20387;-75
2022/04/21 02:00:21;;;;;;;;;;;4.60;99.90;;;;;;5059641;28;19932;-75
2022/04/21 02:02:48;;;;;;;;;;;4.60;99.90;;;;;;5063059;28;20034;-75
2022/04/21 02:05:15;;;;;;;;;;;4.60;99.90;;;;;;5063402;28;19928;-75
2022/04/21 02:07:45;;;;;;;;;;;4.60;99.90;;;;;;5065575;28;19924;-75
2022/04/21 02:10:19;;;;;;;;;;;4.60;99.90;;;;;;5068212;28;19924;-75
2022/04/21 02:12:46;;;;;;;;;;;4.70;99.90;;;;;;5063264;28;20347;-75
2022/04/21 02:15:13;;;;;;;;;;;4.70;99.90;;;;;;5065061;28;19925;-75
2022/04/21 02:17:39;;;;;;;;;;;4.80;99.90;;;;;;5063721;28;20295;-75
2022/04/21 02:20:08;;;;;;;;;;;4.70;99.90;;;;;;5064569;28;20308;-75
2022/04/21 02:22:37;;;;;;;;;;;4.70;99.90;;;;;;5064134;28;19999;-75
2022/04/21 02:25:06;;;;;;;;;;;4.60;99.90;;;;;;5062433;28;19932;-75
2022/04/21 02:27:33;;;;;;;;;;;4.60;99.90;;;;;;5063250;28;19931;-75
2022/04/21 02:30:00;;;;;;;;;;;4.50;99.90;;;;;;5098111;28;19947;-75
2022/04/21 02:32:27;;;;;;;;;;;4.40;99.90;;;;;;5065125;28;20216;-75
2022/04/21 02:34:54;;;;;;;;;;;4.30;99.90;;;;;;5066301;28;19971;-75
2022/04/21 02:37:21;;;;;;;;;;;4.20;99.90;;;;;;5067186;28;20601;-75
2022/04/21 02:39:49;;;;;;;;;;;4.10;99.90;;;;;;5093049;28;20392;-75
2022/04/21 02:42:16;;;;;;;;;;;4.00;99.90;;;;;;5062452;28;20450;-74
2022/04/21 02:44:43;;;;;;;;;;;3.90;99.90;;;;;;5064346;28;19924;-76
2022/04/21 02:47:10;;;;;;;;;;;3.80;99.90;;;;;;5066243;28;19930;-76
2022/04/21 02:49:37;;;;;;;;;;;3.80;99.90;;;;;;5084947;28;19928;-76
2022/04/21 02:52:05;;;;;;;;;;;3.70;99.90;;;;;;5063009;28;20298;-76
2022/04/21 02:57:20;;;;;;;;;;;3.50;99.90;;;;;;5063725;28;20287;-76
2022/04/21 02:59:50;;;;;;;;;;;3.40;99.90;;;;;;5063221;28;19928;-76
2022/04/21 03:02:18;;;;;;;;;;;3.40;99.90;;;;;;5064401;28;19958;-76
2022/04/21 03:04:45;;;;;;;;;;;3.30;99.90;;;;;;5067449;28;19931;-76
2022/04/21 03:07:13;;;;;;;;;;;3.20;99.90;;;;;;5097507;28;19955;-76
2022/04/21 03:09:43;;;;;;;;;;;3.20;99.90;;;;;;5062384;28;19931;-76
2022/04/21 03:12:10;;;;;;;;;;;3.10;99.90;;;;;;5065734;28;19924;-76
2022/04/21 03:14:37;;;;;;;;;;;3.00;99.90;;;;;;5063791;28;19932;-76
2022/04/21 03:17:05;;;;;;;;;;;3.00;99.90;;;;;;5063350;28;19935;-76
2022/04/21 03:19:32;;;;;;;;;;;2.90;99.90;;;;;;5066044;28;19930;-76
2022/04/21 03:24:46;;;;;;;;;;;2.80;99.90;;;;;;5062699;28;19933;-76
2022/04/21 03:27:13;;;;;;;;;;;2.70;99.90;;;;;;5060734;28;19925;-76
2022/04/21 03:29:40;;;;;;;;;;;2.60;99.90;;;;;;5099248;28;19931;-76
2022/04/21 03:32:16;;;;;;;;;;;2.60;99.90;;;;;;5064283;28;20288;-76
2022/04/21 03:34:44;;;;;;;;;;;2.50;99.90;;;;;;5056877;28;20413;-76
2022/04/21 03:37:13;;;;;;;;;;;2.50;99.90;;;;;;5060290;28;19933;-76
2022/04/21 03:39:41;;;;;;;;;;;2.50;99.90;;;;;;5068652;28;19935;-76
2022/04/21 03:42:16;;;;;;;;;;;2.50;99.90;;;;;;5067381;28;19962;-76
2022/04/21 03:44:43;;;;;;;;;;;2.40;99.90;;;;;;5065228;28;19930;-76
2022/04/21 03:47:10;;;;;;;;;;;2.40;99.90;;;;;;5070367;28;19982;-76
2022/04/21 03:49:36;;;;;;;;;;;2.40;99.90;;;;;;5070178;28;19928;-76
2022/04/21 03:52:03;;;;;;;;;;;2.40;99.90;;;;;;5071444;28;19971;-76
2022/04/21 03:54:30;;;;;;;;;;;2.40;99.90;;;;;;5102347;28;19939;-76
2022/04/21 03:56:56;;;;;;;;;;;2.40;99.90;;;;;;5070626;28;19934;-77
2022/04/21 03:59:23;;;;;;;;;;;2.40;99.90;;;;;;5067288;28;19931;-76
2022/04/21 04:01:53;;;;;;;;;;;2.40;99.90;;;;;;5071531;28;19924;-76
2022/04/21 04:04:20;;;;;;;;;;;2.40;99.90;;;;;;5067476;28;19929;-76
2022/04/21 04:12:17;;;;;;;;;;;2.30;99.90;;;;;;5069265;28;20250;-76
2022/04/21 04:14:48;;;;;;;;;;;2.20;99.90;;;;;;5063242;28;19932;-76
2022/04/21 04:17:15;;;;;;;;;;;2.20;99.90;;;;;;5060965;28;20379;-77
2022/04/21 04:19:41;;;;;;;;;;;2.30;99.90;;;;;;5067983;28;19932;-76
2022/04/21 04:22:08;;;;;;;;;;;2.30;99.90;;;;;;5071221;28;20302;-77
2022/04/21 04:24:35;;;;;;;;;;;2.40;99.90;;;;;;5069468;28;19931;-77
2022/04/21 04:27:01;;;;;;;;;;;2.50;99.90;;;;;;5066489;28;20038;-77
2022/04/21 04:29:28;;;;;;;;;;;2.60;99.90;;;;;;5070746;28;19939;-77
2022/04/21 04:31:57;;;;;;;;;;;2.60;99.90;;;;;;5070432;28;19977;-77
2022/04/21 04:34:23;;;;;;;;;;;2.70;99.90;;;;;;5066132;28;19975;-77
2022/04/21 04:36:50;;;;;;;;;;;2.80;99.90;;;;;;5063730;28;19931;-76
2022/04/21 04:39:17;;;;;;;;;;;2.90;99.90;;;;;;5063263;28;19928;-77
2022/04/21 04:44:30;;;;;;;;;;;3.20;99.90;;;;;;5065994;28;19925;-77
2022/04/21 04:46:57;;;;;;;;;;;3.50;99.90;;;;;;5069479;28;20382;-77
2022/04/21 04:49:24;;;;;;;;;;;3.90;99.90;;;;;;5065591;28;19924;-77
2022/04/21 04:51:50;;;;;;;;;;;4.20;99.90;;;;;;5065654;28;20322;-76
2022/04/21 04:54:17;;;;;;;;;;;4.50;99.90;;;;;;5064582;28;20019;-75
2022/04/21 04:56:45;;;;;;;;;;;4.70;99.90;;;;;;5068899;28;20007;-75
2022/04/21 04:59:11;;;;;;;;;;;4.90;99.90;;;;;;5065956;28;20019;-75
2022/04/21 05:01:41;;;;;;;;;;;5.10;99.90;;;;;;5070078;28;19931;-75
2022/04/21 05:04:11;;;;;;;;;;;5.30;99.90;;;;;;5069300;28;20348;-75
2022/04/21 05:06:42;;;;;;;;;;;5.40;99.90;;;;;;5065736;28;19940;-75
2022/04/21 05:09:13;;;;;;;;;;;5.50;99.90;;;;;;5055638;28;19929;-75
2022/04/21 05:11:41;;;;;;;;;;;5.60;99.90;;;;;;5064622;28;19925;-76
2022/04/21 05:14:10;;;;;;;;;;;5.70;99.90;;;;;;5063077;28;19933;-75
2022/04/21 05:16:37;;;;;;;;;;;5.80;99.90;;;;;;5061560;28;19928;-75
2022/04/21 05:19:04;;;;;;;;;;;6.00;99.90;;;;;;5064969;28;20019;-76
2022/04/21 05:21:32;;;;;;;;;;;6.10;99.90;;;;;;5067128;28;19924;-75
2022/04/21 05:24:00;;;;;;;;;;;6.20;99.90;;;;;;5066028;28;19931;-75
2022/04/21 05:26:27;;;;;;;;;;;6.30;99.90;;;;;;5067878;28;19929;-75
2022/04/21 05:28:57;;;;;;;;;;;6.40;99.90;;;;;;5064186;28;19940;-76
2022/04/21 05:31:25;;;;;;;;;;;6.50;99.90;;;;;;5060176;28;19924;-75
2022/04/21 05:33:52;;;;;;;;;;;6.50;99.90;;;;;;5064905;28;19948;-75
2022/04/21 05:36:19;;;;;;;;;;;6.70;99.90;;;;;;5064180;28;19928;-75
2022/04/21 05:38:52;;;;;;;;;;;6.70;99.90;;;;;;5063874;28;19924;-75
2022/04/21 05:41:19;;;;;;;;;;;6.80;99.90;;;;;;5064701;28;20046;-75
2022/04/21 05:43:47;;;;;;;;;;;6.90;99.90;;;;;;5065181;28;19928;-75
2022/04/21 05:46:14;;;;;;;;;;;7.10;99.90;;;;;;5098419;28;19977;-75
2022/04/21 05:48:42;;;;;;;;;;;7.30;99.90;;;;;;5065074;28;19978;-75
2022/04/21 05:51:09;;;;;;;;;;;7.40;99.90;;;;;;5064018;28;19938;-75
2022/04/21 05:53:37;;;;;;;;;;;7.60;99.90;;;;;;5067688;28;20363;-75
2022/04/21 05:56:05;;;;;;;;;;;7.90;99.90;;;;;;5094115;28;20294;-75
2022/04/21 05:58:31;;;;;;;;;;;8.60;99.90;;;;;;5067629;28;20290;-75
2022/04/21 06:01:01;;;;;;;;;;;9.50;99.90;;;;;;5068540;28;19936;-75
2022/04/21 06:03:30;;;;;;;;;;;10.30;99.90;;;;;;5065556;28;20024;-75
2022/04/21 06:05:57;;;;;;;;;;;11.10;99.90;;;;;;5058951;28;19982;-76
2022/04/21 06:08:23;;;;;;;;;;;11.80;99.90;;;;;;5061364;28;19939;-75
2022/04/21 06:10:50;;;;;;;;;;;12.60;99.90;;;;;;5068285;28;20250;-76
2022/04/21 06:13:17;;;;;;;;;;;13.20;99.90;;;;;;5063246;28;19936;-74
2022/04/21 06:15:43;;;;;;;;;;;13.60;99.90;;;;;;5061981;28;19925;-75
2022/04/21 06:18:10;;;;;;;;;;;13.60;99.90;;;;;;5098112;28;20021;-75
2022/04/21 06:20:37;;;;;;;;;;;13.40;99.90;;;;;;5059281;28;19929;-74
2022/04/21 06:23:03;;;;;;;;;;;13.70;99.90;;;;;;5063974;28;19961;-74
2022/04/21 06:25:30;;;;;;;;;;;13.90;99.90;;;;;;5062152;28;19932;-75
2022/04/21 06:27:57;;;;;;;;;;;14.30;99.90;;;;;;5063188;28;20287;-75
2022/04/21 06:30:24;;;;;;;;;;;14.60;99.90;;;;;;5063135;28;19925;-74
2022/04/21 06:32:51;;;;;;;;;;;14.60;99.90;;;;;;5051201;28;19924;-75
2022/04/21 06:35:18;;;;;;;;;;;14.40;99.90;;;;;;5061889;28;19939;-75
2022/04/21 06:37:48;;;;;;;;;;;14.70;99.90;;;;;;5060317;28;20379;-75
2022/04/21 06:40:15;;;;;;;;;;;15.30;99.90;;;;;;5063980;28;19924;-75
2022/04/21 06:42:42;;;;;;;;;;;15.80;99.90;;;;;;5062336;28;19924;-75
2022/04/21 06:48:04;;;;;;;;;;;16.50;99.90;;;;;;5058699;28;19931;-75
2022/04/21 06:50:38;;;;;;;;;;;16.40;99.90;;;;;;5060827;28;19925;-75
2022/04/21 06:53:05;;;;;;;;;;;16.70;99.90;;;;;;5060478;28;19925;-75
2022/04/21 06:55:32;;;;;;;;;;;16.90;99.90;;;;;;5057816;28;19928;-75
2022/04/21 06:57:59;;;;;;;;;;;16.90;99.90;;;;;;5062124;28;19930;-75
2022/04/21 07:00:26;;;;;;;;;;;17.10;99.90;;;;;;5063341;28;19925;-75
2022/04/21 07:02:55;;;;;;;;;;;17.40;99.90;;;;;;5062695;28;20244;-75
2022/04/21 07:05:22;;;;;;;;;;;17.80;99.80;;;;;;5059283;28;20341;-75
2022/04/21 07:07:50;;;;;;;;;;;18.20;99.40;;;;;;5059471;28;19924;-75
2022/04/21 07:10:21;;;;;;;;;;;17.40;98.20;;;;;;5061358;28;20454;-75
2022/04/21 07:12:51;;;;;;;;;;;17.00;98.80;;;;;;5061817;28;19935;-75
2022/04/21 07:15:19;;;;;;;;;;;16.80;99.40;;;;;;5063754;28;20390;-75
2022/04/21 07:17:46;;;;;;;;;;;17.40;99.20;;;;;;5063882;28;19935;-75
2022/04/21 07:20:12;;;;;;;;;;;17.50;98.70;;;;;;5061625;28;19947;-75
2022/04/21 07:22:39;;;;;;;;;;;17.20;98.30;;;;;;5058742;28;19924;-75
2022/04/21 07:25:09;;;;;;;;;;;17.30;98.50;;;;;;5063536;28;20138;-75
2022/04/21 07:27:37;;;;;;;;;;;17.50;99.00;;;;;;5066678;28;20569;-74
2022/04/21 07:30:05;;;;;;;;;;;17.90;98.30;;;;;;5065746;28;19936;-75
2022/04/21 07:32:32;;;;;;;;;;;18.10;97.90;;;;;;5067693;28;20014;-75
2022/04/21 07:34:59;;;;;;;;;;;18.50;97.40;;;;;;5066282;28;19929;-75
2022/04/21 07:37:26;;;;;;;;;;;18.50;97.50;;;;;;5066269;28;19932;-75
2022/04/21 07:39:53;;;;;;;;;;;19.00;97.20;;;;;;5063008;28;19936;-74
2022/04/21 07:42:23;;;;;;;;;;;18.80;95.90;;;;;;5065369;28;19932;-75
2022/04/21 07:44:50;;;;;;;;;;;17.80;96.00;;;;;;5065353;28;19928;-74
2022/04/21 07:47:16;;;;;;;;;;;16.80;97.00;;;;;;5065015;28;20167;-74
2022/04/21 07:49:46;;;;;;;;;;;16.00;97.20;;;;;;5067309;28;19932;-74
2022/04/21 07:55:07;;;;;;;;;;;16.30;97.80;;;;;;5053777;28;19925;-74
2022/04/21 07:57:34;;;;;;;;;;;16.50;98.00;;;;;;5068296;28;20011;-75
2022/04/21 08:00:03;;;;;;;;;;;16.60;97.60;;;;;;5063975;28;20299;-74
2022/04/21 08:02:29;;;;;;;;;;;16.60;97.50;;;;;;5060722;28;19932;-74
2022/04/21 08:04:56;;;;;;;;;;;16.30;97.30;;;;;;5065333;28;19935;-75
2022/04/21 08:07:23;;;;;;;;;;;16.10;97.70;;;;;;5065670;28;19925;-74
2022/04/21 08:09:52;;;;;;;;;;;16.50;97.60;;;;;;5065185;28;19935;-74
2022/04/21 08:12:19;;;;;;;;;;;16.30;97.80;;;;;;5065930;28;19924;-74
2022/04/21 08:14:46;;;;;;;;;;;16.10;97.90;;;;;;5065568;28;19924;-74
2022/04/21 08:17:19;;;;;;;;;;;15.90;98.00;;;;;;5067451;28;19935;-74
2022/04/21 08:19:45;;;;;;;;;;;15.80;98.00;;;;;;5061974;28;19929;-75
2022/04/21 08:22:12;;;;;;;;;;;15.70;98.30;;;;;;5067645;28;19924;-75
2022/04/21 08:33:15;;;;;;;;;;;15.90;98.30;;;;;;5042382;28;19933;-75
2022/04/21 08:35:43;;;;;;;;;;;16.00;98.20;;;;;;5064237;28;20453;-75
2022/04/21 08:38:11;;;;;;;;;;;16.40;98.50;;;;;;5066564;28;20348;-75
2022/04/21 08:40:53;;;;;;;;;;;16.70;97.70;;;;;;5062449;28;19949;-75
2022/04/21 08:43:20;;;;;;;;;;;17.30;97.50;;;;;;5055201;28;20607;-75
2022/04/21 08:45:47;;;;;;;;;;;17.50;97.00;;;;;;5058380;28;19943;-75
2022/04/21 08:48:15;;;;;;;;;;;17.70;96.90;;;;;;5067065;28;19928;-75
2022/04/21 08:50:42;;;;;;;;;;;17.70;96.70;;;;;;5065909;28;19929;-75
2022/04/21 08:53:10;;;;;;;;;;;18.00;96.30;;;;;;5058892;28;20014;-75
2022/04/21 08:55:36;;;;;;;;;;;18.10;96.20;;;;;;5065120;28;19932;-75
2022/04/21 08:58:06;;;;;;;;;;;18.90;96.10;;;;;;5061190;28;19931;-75
2022/04/21 09:00:33;;;;;;;;;;;20.00;95.20;;;;;;5068992;28;19940;-73
2022/04/21 09:03:00;;;;;;;;;;;21.00;94.70;;;;;;5064710;28;19928;-75
2022/04/21 09:05:27;;;;;;;;;;;20.10;94.00;;;;;;5057922;28;20450;-74
2022/04/21 09:07:54;;;;;;;;;;;19.10;94.50;;;;;;5059832;28;21666;-74
2022/04/21 09:10:41;;;;;;;;;;;18.50;94.90;;;;;;5061694;28;19939;-75
2022/04/21 09:13:07;;;;;;;;;;;18.30;95.30;;;;;;5063642;28;19935;-75
2022/04/21 09:15:36;;;;;;;;;;;18.70;95.60;;;;;;5064148;28;20441;-75
2022/04/21 09:18:10;;;;;;;;;;;18.30;94.80;;;;;;5065348;28;20551;-74
2022/04/21 09:20:39;;;;;;;;;;;19.10;95.40;;;;;;5065598;28;19930;-75
2022/04/21 09:23:07;;;;;;;;;;;19.00;94.60;;;;;;5068073;28;19938;-75
2022/04/21 09:25:47;;;;;;;;;;;18.30;95.00;;;;;;5067775;28;19940;-74
2022/04/21 09:28:38;;;;;;;;;;;17.80;95.60;;;;;;5097421;28;19971;-75
2022/04/21 09:31:06;;;;;;;;;;;18.50;95.50;;;;;;5063200;28;20232;-75
2022/04/21 09:33:44;;;;;;;;;;;19.30;94.60;;;;;;5065143;28;19986;-75
2022/04/21 09:36:11;;;;;;;;;;;19.80;94.50;;;;;;5059435;28;19935;-75
2022/04/21 09:38:37;;;;;;;;;;;20.10;94.00;;;;;;5067816;28;19965;-74
2022/04/21 09:41:13;;;;;;;;;;;20.40;93.80;;;;;;5062534;28;19928;-74
2022/04/21 09:43:41;;;;;;;;;;;21.30;93.90;;;;;;5064991;28;20205;-74
2022/04/21 09:46:14;;;;;;;;;;;21.30;94.00;;;;;;5063736;28;20306;-74
2022/04/21 09:48:42;;;;;;;;;;;21.90;93.40;;;;;;5051658;28;19925;-74
2022/04/21 09:51:16;;;;;;;;;;;21.90;92.70;;;;;;5064530;28;20386;-74
2022/04/21 09:53:52;;;;;;;;;;;21.50;92.30;;;;;;5056757;28;20014;-75
2022/04/21 09:56:41;;;;;;;;;;;20.40;92.50;;;;;;5087393;28;19929;-75
2022/04/21 09:59:09;;;;;;;;;;;20.30;93.10;;;;;;5057300;28;20014;-75
2022/04/21 10:01:38;;;;;;;;;;;20.80;92.90;;;;;;5064463;28;19924;-75
2022/04/21 10:04:09;;;;;;;;;;;20.50;92.70;;;;;;5060830;28;19925;-75
2022/04/21 10:06:37;;;;;;;;;;;20.70;92.90;;;;;;5059143;28;19929;-75
2022/04/21 10:09:07;;;;;;;;;;;20.80;92.40;;;;;;5058647;28;19978;-75
2022/04/21 10:11:37;;;;;;;;;;;21.30;92.40;;;;;;5065605;28;19929;-75
2022/04/21 10:14:04;;;;;;;;;;;21.60;91.60;;;;;;5067016;28;19931;-75
2022/04/21 10:16:31;;;;;;;;;;;21.40;90.00;;;;;;5064859;28;19947;-75
2022/04/21 10:18:59;;;;;;;;;;;21.40;90.80;;;;;;5062069;28;19939;-75
2022/04/21 10:21:30;;;;;;;;;;;21.30;91.50;;;;;;5056483;28;19924;-73
2022/04/21 10:23:57;;;;;;;;;;;21.10;90.30;;;;;;5054408;28;19933;-75
2022/04/21 10:26:35;;;;;;;;;;;20.40;91.00;;;;;;5065757;28;20398;-75
2022/04/21 10:29:10;;;;;;;;;;;19.90;91.10;;;;;;5056533;28;19924;-75
2022/04/21 10:31:49;;;;;;;;;;;19.80;91.70;;;;;;5064019;28;19924;-74
2022/04/21 10:34:36;;;;;;;;;;;19.70;91.50;;;;;;5063042;28;19990;-75
2022/04/21 10:37:06;;;;;;;;;;;19.70;91.60;;;;;;5061240;28;19956;-75
2022/04/21 10:39:33;;;;;;;;;;;20.40;91.60;;;;;;5063624;28;20024;-75
2022/04/21 10:42:18;;;;;;;;;;;20.10;91.20;;;;;;5063938;28;19952;-75
2022/04/21 10:44:46;;;;;;;;;;;20.00;91.50;;;;;;5056386;28;19931;-75
2022/04/21 10:47:45;;;;;;;;;;;20.00;91.30;;;;;;5060501;28;20024;-75
2022/04/21 10:50:13;;;;;;;;;;;20.50;91.90;;;;;;4995600;28;19926;-74
2022/04/21 10:57:56;;;;;;;;;;;20.70;90.90;;;;;;4997922;28;19941;-75
2022/04/21 11:00:23;;;;;;;;;;;21.00;91.10;;;;;;4987528;28;19992;-75
2022/04/21 11:03:00;;;;;;;;;;;20.70;90.80;;;;;;4985869;28;20415;-74
2022/04/21 11:05:30;;;;;;;;;;;20.70;90.60;;;;;;5007288;28;20299;-75
2022/04/21 11:07:58;;;;;;;;;;;20.90;91.00;;;;;;5005306;28;19929;-75
2022/04/21 11:10:38;;;;;;;;;;;21.30;91.50;;;;;;5000028;28;19926;-75
2022/04/21 11:13:06;;;;;;;;;;;21.00;91.20;;;;;;4991256;28;19948;-75
2022/04/21 11:15:49;;;;;;;;;;;21.10;90.60;;;;;;4997057;28;20057;-73
2022/04/21 11:18:28;;;;;;;;;;;21.20;91.50;;;;;;4998022;28;19988;-74
2022/04/21 11:21:13;;;;;;;;;;;21.30;91.10;;;;;;4998292;28;21098;-74
2022/04/21 11:23:48;;;;;;;;;;;21.20;90.60;;;;;;4997787;28;19926;-74
2022/04/21 11:26:15;;;;;;;;;;;21.00;90.90;;;;;;5041911;28;19936;-75
2022/04/21 11:28:45;;;;;;;;;;;20.50;91.10;;;;;;5060301;28;20380;-75
2022/04/21 11:31:12;;;;;;;;;;;20.30;91.10;;;;;;5066155;28;19935;-74
2022/04/21 11:33:39;;;;;;;;;;;20.40;91.50;;;;;;5063010;28;19931;-74
2022/04/21 11:36:06;;;;;;;;;;;20.30;91.40;;;;;;5064975;28;19924;-74
2022/04/21 11:38:36;;;;;;;;;;;20.80;91.30;;;;;;5063152;28;20019;-74
2022/04/21 11:41:03;;;;;;;;;;;20.60;91.00;;;;;;5063919;28;19925;-74
2022/04/21 11:43:30;;;;;;;;;;;20.40;91.60;;;;;;5060157;28;19928;-77
2022/04/21 11:45:58;;;;;;;;;;;20.50;91.20;;;;;;5065148;28;20391;-75
2022/04/21 11:48:30;;;;;;;;;;;20.30;91.60;;;;;;5056841;28;20042;-73
2022/04/21 11:50:56;;;;;;;;;;;20.20;91.70;;;;;;5075143;28;19948;-73
2022/04/21 11:53:27;;;;;;;;;;;20.70;91.60;;;;;;5064732;28;19931;-74
2022/04/21 11:55:53;;;;;;;;;;;21.00;91.20;;;;;;5058861;28;19935;-74
2022/04/21 11:58:27;;;;;;;;;;;21.40;91.40;;;;;;5063482;28;20320;-74
2022/04/21 12:06:39;;;;;;;;;;;21.10;90.70;;;;;;5071174;28;19924;-74
2022/04/21 12:09:14;;;;;;;;;;;19.90;91.40;;;;;;5069053;28;19999;-74
2022/04/21 12:11:41;;;;;;;;;;;19.70;92.30;;;;;;5062025;28;19933;-74
2022/04/21 12:14:08;;;;;;;;;;;20.00;92.00;;;;;;5058510;28;19932;-74
2022/04/21 12:16:53;;;;;;;;;;;20.00;91.80;;;;;;5072320;28;19932;-75
2022/04/21 12:19:38;;;;;;;;;;;19.80;92.20;;;;;;5069372;28;19977;-75
2022/04/21 12:22:16;;;;;;;;;;;19.60;92.20;;;;;;5051011;28;20575;-75
2022/04/21 12:24:44;;;;;;;;;;;19.10;92.40;;;;;;5059250;28;19990;-75
2022/04/21 12:27:13;;;;;;;;;;;19.10;92.70;;;;;;5069130;28;19935;-74
2022/04/21 12:29:47;;;;;;;;;;;19.00;92.80;;;;;;5091343;28;19931;-75
2022/04/21 12:32:16;;;;;;;;;;;18.90;93.10;;;;;;5055436;28;19934;-75
2022/04/21 12:34:42;;;;;;;;;;;18.80;92.60;;;;;;5061050;28;19924;-75
2022/04/21 12:37:09;;;;;;;;;;;19.10;92.70;;;;;;5068252;28;19936;-75
2022/04/21 12:39:37;;;;;;;;;;;19.60;92.60;;;;;;5058523;28;20398;-75
2022/04/21 12:42:28;;;;;;;;;;;19.90;92.50;;;;;;5063459;28;19924;-75
2022/04/21 12:44:55;;;;;;;;;;;20.40;92.50;;;;;;5061458;28;19939;-75
2022/04/21 12:47:22;;;;;;;;;;;20.70;92.30;;;;;;5053014;28;20137;-75
2022/04/21 12:49:55;;;;;;;;;;;21.30;92.10;;;;;;5062713;28;19925;-74
2022/04/21 12:52:31;;;;;;;;;;;21.30;91.70;;;;;;5061321;28;20410;-74
2022/04/21 12:54:58;;;;;;;;;;;21.30;91.50;;;;;;5063569;28;19924;-75
2022/04/21 12:57:24;;;;;;;;;;;21.00;91.70;;;;;;5062875;28;20393;-75
2022/04/21 12:59:51;;;;;;;;;;;20.70;91.90;;;;;;5062599;28;20405;-74
2022/04/21 13:02:20;;;;;;;;;;;20.30;91.90;;;;;;5057226;28;19931;-74
2022/04/21 13:04:47;;;;;;;;;;;20.00;92.40;;;;;;5066175;28;20434;-74
2022/04/21 13:07:14;;;;;;;;;;;19.80;92.30;;;;;;5066494;28;19924;-74
2022/04/21 13:09:49;;;;;;;;;;;19.80;92.90;;;;;;5069440;28;19924;-74
2022/04/21 13:12:16;;;;;;;;;;;20.20;92.40;;;;;;5069345;28;19934;-74
2022/04/21 13:14:43;;;;;;;;;;;20.70;92.40;;;;;;5067069;28;19947;-75
2022/04/21 13:17:09;;;;;;;;;;;20.90;92.00;;;;;;5067603;28;19924;-75
2022/04/21 13:19:36;;;;;;;;;;;21.00;91.80;;;;;;5066323;28;19935;-75
2022/04/21 13:22:04;;;;;;;;;;;20.70;91.50;;;;;;5066571;28;19924;-75
2022/04/21 13:24:31;;;;;;;;;;;20.40;92.20;;;;;;5068693;28;19936;-74
2022/04/21 13:27:02;;;;;;;;;;;19.70;92.10;;;;;;5065560;28;20383;-75
2022/04/21 13:29:29;;;;;;;;;;;19.70;92.50;;;;;;5064189;28;19980;-75
2022/04/21 13:34:42;;;;;;;;;;;20.00;92.50;;;;;;5065516;28;19951;-75
2022/04/21 13:37:09;;;;;;;;;;;19.90;92.10;;;;;;5064962;28;19928;-75
2022/04/21 13:39:36;;;;;;;;;;;19.30;92.40;;;;;;5062252;28;19932;-75
2022/04/21 13:42:03;;;;;;;;;;;18.90;92.80;;;;;;5066872;28;20335;-75
2022/04/21 13:44:30;;;;;;;;;;;18.70;92.90;;;;;;5054881;28;19932;-74
2022/04/21 13:47:17;;;;;;;;;;;18.40;93.20;;;;;;5062479;28;20054;-74
2022/04/21 13:49:46;;;;;;;;;;;18.80;93.40;;;;;;5068717;28;20325;-75
2022/04/21 13:52:12;;;;;;;;;;;19.80;93.30;;;;;;5063871;28;19928;-75
2022/04/21 13:54:39;;;;;;;;;;;20.90;92.70;;;;;;5062491;28;19939;-74
2022/04/21 13:57:06;;;;;;;;;;;21.80;92.10;;;;;;5060198;28;19924;-75
2022/04/21 13:59:35;;;;;;;;;;;22.60;91.00;;;;;;5066465;28;20337;-75
2022/04/21 14:02:02;;;;;;;;;;;23.80;90.70;;;;;;5062161;28;19932;-74
2022/04/21 14:04:31;;;;;;;;;;;25.20;90.00;;;;;;5051878;28;19932;-74
2022/04/21 14:06:59;;;;;;;;;;;25.40;88.30;;;;;;5065076;28;19932;-74
2022/04/21 14:09:25;;;;;;;;;;;24.10;89.00;;;;;;5063710;28;20383;-74
2022/04/21 14:11:57;;;;;;;;;;;22.50;90.10;;;;;;5075458;28;20007;-74
2022/04/21 14:14:28;;;;;;;;;;;20.90;91.00;;;;;;5063040;28;19977;-74
2022/04/21 14:16:55;;;;;;;;;;;20.10;92.10;;;;;;5067239;28;19924;-74
2022/04/21 14:19:22;;;;;;;;;;;19.20;92.70;;;;;;5060365;28;19925;-74
2022/04/21 14:21:49;;;;;;;;;;;18.80;93.00;;;;;;5065303;28;19931;-74
2022/04/21 14:24:19;;;;;;;;;;;18.50;93.30;;;;;;5071286;28;19924;-74
2022/04/21 14:26:45;;;;;;;;;;;18.30;93.70;;;;;;5065920;28;20254;-75
2022/04/21 14:29:13;;;;;;;;;;;18.30;93.40;;;;;;5071151;28;19932;-74
2022/04/21 14:31:40;;;;;;;;;;;18.20;93.60;;;;;;5059217;28;19935;-75
2022/04/21 14:34:07;;;;;;;;;;;18.10;93.60;;;;;;5067338;28;19924;-74
2022/04/21 14:36:34;;;;;;;;;;;17.80;93.70;;;;;;5061341;28;20485;-75
2022/04/21 14:44:31;;;;;;;;;;;17.50;94.30;;;;;;5062834;28;20279;-75
2022/04/21 14:47:02;;;;;;;;;;;17.40;94.10;;;;;;5062103;28;19986;-75
2022/04/21 14:49:49;;;;;;;;;;;17.20;94.10;;;;;;5060248;28;20331;-74
2022/04/21 14:52:16;;;;;;;;;;;17.20;94.60;;;;;;5065339;28;19939;-75
2022/04/21 14:54:42;;;;;;;;;;;17.40;95.00;;;;;;5064202;28;19931;-75
2022/04/21 14:57:09;;;;;;;;;;;17.50;94.20;;;;;;5064985;28;19935;-75
2022/04/21 14:59:38;;;;;;;;;;;17.40;94.20;;;;;;5058244;28;19999;-75
2022/04/21 15:02:07;;;;;;;;;;;17.70;94.10;;;;;;5062740;28;19936;-75
2022/04/21 15:04:35;;;;;;;;;;;17.80;93.80;;;;;;5068678;28;19928;-75
2022/04/21 15:07:02;;;;;;;;;;;17.90;94.00;;;;;;5063633;28;20023;-74
2022/04/21 15:09:29;;;;;;;;;;;17.80;93.50;;;;;;5094357;28;19925;-75
2022/04/21 15:11:58;;;;;;;;;;;17.80;93.20;;;;;;5063680;28;20394;-75
2022/04/21 15:14:25;;;;;;;;;;;17.60;93.40;;;;;;5061370;28;20306;-74
2022/04/21 15:16:52;;;;;;;;;;;17.40;93.50;;;;;;5071727;28;20095;-75
2022/04/21 15:19:19;;;;;;;;;;;17.10;93.70;;;;;;5066734;28;20102;-75
2022/04/21 15:21:46;;;;;;;;;;;16.80;93.80;;;;;;5064062;28;19947;-74
2022/04/21 15:24:13;;;;;;;;;;;16.70;94.20;;;;;;5065057;28;19932;-74